KMCC

Mc Clellan Airfield Airport

Sacramento, California, USA
METAR KMCC 191450Z AUTO 16006KT 10SM CLR 08/08 A3012 RMK AO2
Observed Flight Rules
Jan-19 @ 14:50 UTC (28 minutes ago) Visual Flight Rules
Wind Visibility Clouds
160° at 6 knots 10 miles
  • Clear skies
Temperatures Readings
Current 8°C / 46°F
Dewpoint 8°C / 46°F
Humidity 100%
Altimeter 30.12" Hg
Pressure 1020 hPa
Elevation 23
METAR KMCC 191450Z AUTO 16006KT 10SM CLR 08/08 A3012 RMK AO2
Observed Flight Rules
Jan-19 @ 14:50 UTC
(28 minutes ago)
VFR
Wind Visibility
160° at 6 knots 10 miles
Clouds
  • Clear skies
Temperature Dewpoint
8°C / 46°F 8°C / 46°F
Humidity Altimeter Pressure
100% 30.12" Hg 1020 hPa